createdAt,value
2019-02-28T00:00:52.448Z,32.07
2019-02-28T00:03:20.648Z,30.93
2019-02-28T00:05:47.356Z,30.30
2019-02-28T00:08:14.027Z,31.43
2019-02-28T00:10:40.707Z,34.13
2019-02-28T00:13:07.295Z,29.80
2019-02-28T00:15:33.944Z,30.37
2019-02-28T00:18:00.531Z,32.03
2019-02-28T00:20:29.116Z,30.53
2019-02-28T00:22:55.860Z,32.47
2019-02-28T00:25:22.471Z,29.30
2019-02-28T00:27:49.265Z,31.83
2019-02-28T00:30:16.184Z,30.80
2019-02-28T00:32:42.793Z,30.97
2019-02-28T00:35:12.949Z,30.77
2019-02-28T00:37:38.213Z,29.50
2019-02-28T00:40:07.973Z,34.03
2019-02-28T00:42:34.682Z,31.63
2019-02-28T00:45:02.687Z,32.67
2019-02-28T00:47:30.195Z,29.77
2019-02-28T00:49:56.800Z,32.50
2019-02-28T00:52:23.448Z,30.23
2019-02-28T00:55:27.147Z,30.63
2019-02-28T00:57:55.389Z,31.77
2019-02-28T01:00:22.470Z,31.10
2019-02-28T01:02:53.547Z,32.00
2019-02-28T01:05:18.147Z,29.73
2019-02-28T01:07:48.057Z,29.77
2019-02-28T01:11:10.441Z,28.37
2019-02-28T01:13:38.683Z,30.20
2019-02-28T01:16:05.429Z,31.53
2019-02-28T01:18:34.475Z,30.80
2019-02-28T01:21:00.655Z,29.90
2019-02-28T01:23:29.391Z,29.90
2019-02-28T01:25:56.902Z,29.33
2019-02-28T01:28:27.050Z,28.60
2019-02-28T01:31:50.534Z,27.97
2019-02-28T01:34:17.155Z,27.60
2019-02-28T01:36:45.965Z,28.70
2019-02-28T01:39:12.339Z,28.80
2019-02-28T01:41:39.109Z,30.73
2019-02-28T01:44:05.732Z,30.57
2019-02-28T01:46:32.276Z,28.87
2019-02-28T01:48:58.847Z,29.53
2019-02-28T01:51:25.566Z,28.50
2019-02-28T01:53:53.645Z,30.27
2019-02-28T01:56:20.647Z,26.63
2019-02-28T01:58:47.573Z,28.87
2019-02-28T02:01:15.956Z,28.30
2019-02-28T02:03:42.665Z,28.47
2019-02-28T02:06:09.540Z,26.70
2019-02-28T02:09:32.453Z,26.93
2019-02-28T02:11:59.196Z,27.47
2019-02-28T02:14:25.736Z,25.73
2019-02-28T02:16:52.446Z,25.43
2019-02-28T02:19:19.115Z,26.83
2019-02-28T02:21:45.776Z,26.27
2019-02-28T02:24:12.395Z,25.03
2019-02-28T02:26:42.346Z,26.03
2019-02-28T02:29:07.949Z,26.73
2019-02-28T02:31:34.587Z,26.03
2019-02-28T02:34:01.428Z,25.83
2019-02-28T02:36:28.168Z,26.80
2019-02-28T02:38:55.225Z,25.07
2019-02-28T02:41:21.870Z,25.23
2019-02-28T02:43:48.526Z,25.27
2019-02-28T02:46:19.478Z,25.37
2019-02-28T02:49:39.962Z,23.07
2019-02-28T02:52:06.603Z,24.23
2019-02-28T02:54:33.290Z,24.47
2019-02-28T02:56:59.911Z,23.53
2019-02-28T02:59:26.483Z,23.87
2019-02-28T03:01:56.210Z,23.57
2019-02-28T03:04:23.197Z,23.50
2019-02-28T03:06:50.175Z,25.43
2019-02-28T03:09:16.777Z,23.20
2019-02-28T03:11:43.331Z,23.07
2019-02-28T03:14:09.972Z,22.43
2019-02-28T03:16:36.731Z,24.97
2019-02-28T03:19:03.612Z,23.67
2019-02-28T03:21:30.786Z,22.93
2019-02-28T03:23:57.473Z,24.73
2019-02-28T03:26:24.073Z,23.07
2019-02-28T03:28:50.681Z,23.63
2019-02-28T03:32:13.679Z,21.90
2019-02-28T03:34:40.455Z,22.20
2019-02-28T03:37:07.141Z,22.50
2019-02-28T03:39:33.881Z,22.67
2019-02-28T03:42:01.034Z,23.57
2019-02-28T03:44:27.652Z,22.17
2019-02-28T03:46:54.615Z,21.03
2019-02-28T03:49:21.285Z,20.97
2019-02-28T03:51:47.883Z,22.27
2019-02-28T03:54:14.514Z,22.70
2019-02-28T03:56:41.126Z,20.53
2019-02-28T03:59:07.910Z,20.17
2019-02-28T04:01:34.528Z,22.47
2019-02-28T04:04:58.774Z,22.10
2019-02-28T04:07:25.684Z,20.00
2019-02-28T04:09:52.443Z,21.60
2019-02-28T04:12:19.210Z,26.67
2019-02-28T04:14:45.893Z,22.50
2019-02-28T04:17:13.804Z,21.97
2019-02-28T04:19:40.730Z,21.50
2019-02-28T04:22:07.284Z,23.23
2019-02-28T04:24:33.915Z,21.13
2019-02-28T04:27:06.530Z,21.00
2019-02-28T04:29:31.145Z,19.20
2019-02-28T04:31:58.158Z,20.83
2019-02-28T04:34:24.921Z,20.57
2019-02-28T04:36:51.527Z,19.50
2019-02-28T04:40:15.691Z,19.93
2019-02-28T04:42:42.601Z,19.97
2019-02-28T04:45:13.081Z,20.60
2019-02-28T04:47:40.537Z,22.40
2019-02-28T04:51:24.699Z,21.47
2019-02-28T04:53:53.006Z,20.00
2019-02-28T04:56:19.903Z,20.97
2019-02-28T04:58:46.499Z,21.47
2019-02-28T05:01:13.507Z,20.17
2019-02-28T05:03:40.441Z,19.63
2019-02-28T05:06:07.223Z,20.20
2019-02-28T05:08:38.588Z,20.67
2019-02-28T05:11:03.814Z,21.70
2019-02-28T05:13:31.641Z,20.43
2019-02-28T05:15:58.213Z,22.13
2019-02-28T05:18:27.622Z,20.47
2019-02-28T05:20:53.660Z,19.40
2019-02-28T05:23:20.238Z,19.90
2019-02-28T05:25:49.088Z,20.60
2019-02-28T05:28:15.375Z,20.37
2019-02-28T05:30:41.961Z,22.77
2019-02-28T05:33:08.553Z,21.87
2019-02-28T05:35:57.174Z,24.57
2019-02-28T05:38:23.740Z,23.30
2019-02-28T05:40:50.544Z,23.53
2019-02-28T05:43:17.208Z,22.90
2019-02-28T05:45:48.714Z,23.20
2019-02-28T05:48:12.429Z,23.37
2019-02-28T05:50:39.738Z,23.40
2019-02-28T05:53:09.331Z,19.97
2019-02-28T05:55:35.291Z,23.77
2019-02-28T05:58:02.116Z,23.20
2019-02-28T06:00:28.967Z,22.70
2019-02-28T06:02:58.065Z,22.57
2019-02-28T06:05:24.166Z,22.93
2019-02-28T06:07:51.003Z,24.43
2019-02-28T06:10:23.349Z,27.57
2019-02-28T06:12:46.460Z,27.20
2019-02-28T06:15:15.252Z,25.53
2019-02-28T06:18:41.639Z,24.17
2019-02-28T06:21:10.129Z,23.43
2019-02-28T06:23:36.894Z,22.43
2019-02-28T06:26:03.952Z,21.57
2019-02-28T06:28:31.133Z,23.40
2019-02-28T06:31:00.471Z,21.40
2019-02-28T06:33:27.339Z,24.43
2019-02-28T06:35:54.551Z,24.03
2019-02-28T06:38:21.460Z,23.57
2019-02-28T06:40:48.062Z,22.43
2019-02-28T06:43:14.698Z,21.70
2019-02-28T06:45:41.387Z,23.00
2019-02-28T06:48:08.260Z,22.77
2019-02-28T06:50:34.978Z,19.47
2019-02-28T06:53:01.660Z,20.37
2019-02-28T06:55:28.302Z,18.90
2019-02-28T06:57:55.080Z,19.27
2019-02-28T07:00:22.054Z,19.67
2019-02-28T07:02:50.160Z,19.13
2019-02-28T07:05:17.342Z,19.70
2019-02-28T07:07:45.824Z,19.47
2019-02-28T07:10:16.313Z,20.17
2019-02-28T07:37:55.499Z,15.60
2019-02-28T07:40:22.254Z,19.60
2019-02-28T07:42:49.144Z,17.47
2019-02-28T07:45:16.189Z,18.57
2019-02-28T07:47:43.102Z,16.50
2019-02-28T07:50:12.731Z,18.73
2019-02-28T07:52:39.588Z,17.47
2019-02-28T07:55:11.465Z,17.67
2019-02-28T07:57:38.171Z,17.33
2019-02-28T08:00:17.139Z,18.43
2019-02-28T08:02:40.158Z,15.00
2019-02-28T08:05:11.248Z,17.60
2019-02-28T08:07:39.259Z,19.73
2019-02-28T08:10:12.772Z,17.67
2019-02-28T08:12:40.083Z,15.73
2019-02-28T08:15:13.695Z,19.20
2019-02-28T08:17:43.635Z,18.17
2019-02-28T08:20:11.006Z,18.53
2019-02-28T08:22:37.623Z,18.60
2019-02-28T08:25:09.942Z,18.63
2019-02-28T08:27:36.590Z,18.30
2019-02-28T08:30:08.947Z,17.67
2019-02-28T08:32:35.689Z,18.33
2019-02-28T08:35:06.994Z,18.57
2019-02-28T08:37:33.675Z,17.73
2019-02-28T08:40:00.355Z,17.33
2019-02-28T08:42:27.046Z,20.60
2019-02-28T08:44:58.123Z,20.00
2019-02-28T08:47:22.281Z,20.43
2019-02-28T08:49:48.927Z,20.70
2019-02-28T09:10:12.742Z,20.33
2019-02-28T09:12:40.217Z,19.33
2019-02-28T09:15:12.269Z,18.20
2019-02-28T09:17:39.058Z,18.83
2019-02-28T09:20:10.506Z,19.20
2019-02-28T09:22:38.147Z,18.13
2019-02-28T09:25:10.033Z,19.20
2019-02-28T09:27:38.906Z,17.73
2019-02-28T09:30:11.041Z,18.30
2019-02-28T09:32:37.961Z,20.23
2019-02-28T09:35:12.288Z,25.10
2019-02-28T09:37:35.166Z,19.67
2019-02-28T09:40:02.022Z,20.43
2019-02-28T09:42:28.849Z,21.03
2019-02-28T09:44:55.632Z,21.17
2019-02-28T09:47:26.315Z,22.00
2019-02-28T09:49:51.727Z,21.70
2019-02-28T09:52:18.330Z,22.43
2019-02-28T09:54:45.087Z,22.57
2019-02-28T09:57:11.803Z,24.90
2019-02-28T09:59:38.674Z,22.63
2019-02-28T10:02:09.390Z,20.67
2019-02-28T10:04:36.964Z,21.67
2019-02-28T10:07:03.829Z,19.87
2019-02-28T10:09:30.713Z,22.33
2019-02-28T10:11:57.402Z,20.50
2019-02-28T10:14:25.673Z,22.63
2019-02-28T10:16:53.378Z,21.70
2019-02-28T10:19:20.121Z,23.13
2019-02-28T10:21:51.894Z,23.23
2019-02-28T10:24:15.223Z,22.47
2019-02-28T10:26:41.832Z,20.53
2019-02-28T10:29:09.552Z,21.33
2019-02-28T10:31:38.444Z,20.77
2019-02-28T10:34:06.977Z,24.07
2019-02-28T10:36:33.751Z,22.10
2019-02-28T10:39:00.483Z,22.80
2019-02-28T10:41:28.002Z,22.73
2019-02-28T10:43:56.067Z,23.60
2019-02-28T10:46:22.765Z,24.30
2019-02-28T10:48:51.054Z,22.57
2019-02-28T10:51:18.040Z,22.77
2019-02-28T10:53:44.698Z,21.37
2019-02-28T10:56:12.057Z,24.10
2019-02-28T10:58:38.682Z,22.40
2019-02-28T11:01:08.942Z,21.77
2019-02-28T11:03:36.167Z,22.17
2019-02-28T11:06:02.974Z,20.87
2019-02-28T11:08:29.625Z,21.93
2019-02-28T11:10:57.603Z,23.27
2019-02-28T11:13:24.483Z,20.70
2019-02-28T11:27:11.308Z,24.67
2019-02-28T11:29:38.167Z,21.70
2019-02-28T11:32:04.939Z,22.03
2019-02-28T11:34:31.777Z,21.93
2019-02-28T11:36:58.594Z,22.13
2019-02-28T11:39:27.527Z,26.63
2019-02-28T11:41:54.180Z,25.30
2019-02-28T11:44:22.426Z,27.20
2019-02-28T11:46:49.096Z,21.30
2019-02-28T11:49:15.862Z,23.63
2019-02-28T11:51:42.627Z,22.10
2019-02-28T11:54:12.275Z,22.07
2019-02-28T11:56:38.267Z,24.77
2019-02-28T11:59:04.998Z,20.23
2019-02-28T12:01:31.925Z,23.10
2019-02-28T12:03:58.682Z,22.60
2019-02-28T12:06:25.762Z,24.33
2019-02-28T12:08:53.556Z,21.93
2019-02-28T12:11:20.314Z,23.17
2019-02-28T12:13:47.058Z,23.40
2019-02-28T12:16:16.226Z,20.77
2019-02-28T12:18:42.329Z,19.93
2019-02-28T12:21:09.080Z,20.53
2019-02-28T12:23:35.716Z,20.70
2019-02-28T12:26:02.619Z,20.50
2019-02-28T12:28:29.452Z,21.13
2019-02-28T12:30:57.272Z,21.70
2019-02-28T12:33:24.729Z,20.70
2019-02-28T12:35:51.537Z,19.27
2019-02-28T12:38:18.369Z,18.97
2019-02-28T12:40:45.738Z,21.17
2019-02-28T12:43:14.032Z,19.63
2019-02-28T12:45:46.982Z,22.30
2019-02-28T12:48:13.908Z,21.50
2019-02-28T12:50:41.662Z,17.80
2019-02-28T12:53:08.462Z,19.57
2019-02-28T12:55:35.476Z,21.93
2019-02-28T12:58:04.082Z,21.03
2019-02-28T13:00:36.448Z,21.57
2019-02-28T13:03:03.590Z,23.77
2019-02-28T13:05:31.257Z,20.20
2019-02-28T13:07:58.283Z,19.70
2019-02-28T13:10:27.992Z,20.30
2019-02-28T13:13:05.325Z,22.70
2019-02-28T13:15:23.740Z,22.00
2019-02-28T13:17:50.725Z,19.43
2019-02-28T13:20:22.592Z,21.80
2019-02-28T13:22:49.329Z,22.00
2019-02-28T13:25:19.422Z,22.83
2019-02-28T13:27:46.156Z,22.10
2019-02-28T13:30:18.227Z,22.87
2019-02-28T13:32:45.246Z,24.87
2019-02-28T13:35:17.004Z,23.60
2019-02-28T13:37:44.810Z,25.57
2019-02-28T13:40:14.269Z,25.47
2019-02-28T13:42:42.318Z,24.60
2019-02-28T13:45:22.184Z,24.83
2019-02-28T13:47:46.473Z,23.17
2019-02-28T13:50:18.037Z,25.83
2019-02-28T13:52:44.863Z,24.57
2019-02-28T13:55:14.343Z,25.63
2019-02-28T13:57:43.713Z,27.50
2019-02-28T14:00:18.426Z,25.70
2019-02-28T14:02:45.549Z,24.30
2019-02-28T14:05:13.432Z,23.97
2019-02-28T14:07:40.379Z,28.37
2019-02-28T14:10:11.711Z,26.50
2019-02-28T14:12:38.480Z,26.97
2019-02-28T14:15:10.282Z,25.93
2019-02-28T14:17:37.077Z,27.70
2019-02-28T14:20:08.845Z,25.37
2019-02-28T14:22:35.633Z,27.50
2019-02-28T14:25:06.148Z,26.27
2019-02-28T14:27:31.943Z,26.67
2019-02-28T14:29:58.696Z,26.83
2019-02-28T14:32:25.232Z,25.70
2019-02-28T14:34:51.987Z,29.00
2019-02-28T14:37:19.576Z,26.67
2019-02-28T14:39:47.301Z,25.17
2019-02-28T14:42:14.020Z,25.20
2019-02-28T14:44:40.621Z,26.67
2019-02-28T14:47:07.379Z,26.33
2019-02-28T14:49:34.181Z,28.27
2019-02-28T14:52:03.623Z,27.23
2019-02-28T14:54:29.566Z,26.67
2019-02-28T14:56:56.181Z,28.47
2019-02-28T14:59:22.944Z,25.07
2019-02-28T15:01:53.057Z,29.33
2019-02-28T15:04:18.251Z,29.63
2019-02-28T15:06:45.046Z,29.63
2019-02-28T15:09:14.788Z,29.07
2019-02-28T15:11:43.621Z,27.87
2019-02-28T15:14:10.931Z,27.20
2019-02-28T15:16:37.735Z,25.57
2019-02-28T15:19:05.827Z,25.00
2019-02-28T15:21:33.086Z,25.97
2019-02-28T15:23:59.666Z,24.53
2019-02-28T15:26:26.638Z,23.87
2019-02-28T15:28:55.125Z,23.50
2019-02-28T15:31:21.802Z,24.13
2019-02-28T15:33:48.550Z,23.60
2019-02-28T15:36:15.211Z,23.13
2019-02-28T15:38:44.744Z,25.63
2019-02-28T15:41:14.120Z,22.23
2019-02-28T15:43:47.042Z,24.00
2019-02-28T15:46:13.877Z,22.23
2019-02-28T15:48:40.526Z,22.43
2019-02-28T15:51:07.454Z,20.70
2019-02-28T15:53:34.222Z,20.80
2019-02-28T15:56:01.184Z,20.70
2019-02-28T15:58:27.806Z,20.07
2019-02-28T16:00:56.582Z,23.13
2019-02-28T16:03:23.252Z,21.30
2019-02-28T16:05:50.102Z,21.97
2019-02-28T16:08:16.828Z,23.43
2019-02-28T16:10:52.850Z,21.60
2019-02-28T16:13:12.343Z,22.63
2019-02-28T16:15:43.287Z,20.17
2019-02-28T16:18:12.066Z,24.13
2019-02-28T16:20:38.362Z,34.53
2019-02-28T16:23:08.636Z,23.90
2019-02-28T16:25:37.476Z,26.87
2019-02-28T16:28:07.721Z,28.17
2019-02-28T16:30:37.898Z,23.93
2019-02-28T16:33:04.894Z,22.93
2019-02-28T16:35:31.484Z,24.73
2019-02-28T16:37:58.291Z,25.30
2019-02-28T16:40:30.126Z,26.53
2019-02-28T16:42:56.996Z,24.03
2019-02-28T16:45:29.717Z,26.37
2019-02-28T16:47:59.543Z,26.57
2019-02-28T16:50:26.906Z,24.67
2019-02-28T16:52:53.507Z,23.37
2019-02-28T16:55:20.203Z,21.07
2019-02-28T16:57:47.844Z,21.43
2019-02-28T17:00:16.599Z,23.33
2019-02-28T17:02:43.509Z,23.37
2019-02-28T17:05:11.120Z,21.33
2019-02-28T17:07:40.505Z,23.03
2019-02-28T17:10:11.801Z,20.47
2019-02-28T17:12:40.741Z,24.13
2019-02-28T17:15:12.766Z,27.70
2019-02-28T17:17:43.497Z,23.93
2019-02-28T17:20:10.490Z,24.43
2019-02-28T17:22:37.417Z,23.93
2019-02-28T17:25:06.048Z,22.83
2019-02-28T17:27:34.829Z,25.50
2019-02-28T17:30:03.554Z,25.47
2019-02-28T17:32:32.170Z,24.97
2019-02-28T17:34:59.646Z,24.77
2019-02-28T17:37:27.063Z,24.60
2019-02-28T17:39:53.754Z,24.57
2019-02-28T17:42:21.529Z,23.63
2019-02-28T17:44:53.819Z,24.87
2019-02-28T17:47:26.185Z,30.70
2019-02-28T17:50:00.017Z,24.10
2019-02-28T17:52:34.463Z,24.40
2019-02-28T17:55:07.158Z,57.87
2019-02-28T17:57:41.612Z,26.27
2019-02-28T18:00:12.965Z,29.07
2019-02-28T18:02:47.762Z,113.37
2019-02-28T18:05:17.332Z,46.70
2019-02-28T18:07:49.788Z,35.03
2019-02-28T18:10:20.989Z,30.57
2019-02-28T18:12:52.755Z,30.23
2019-02-28T18:15:25.055Z,25.23
2019-02-28T18:17:57.542Z,30.03
2019-02-28T18:20:32.154Z,28.40
2019-02-28T18:23:02.516Z,28.33
2019-02-28T18:25:33.125Z,31.70
2019-02-28T18:28:03.668Z,33.63
2019-02-28T18:30:36.146Z,31.10
2019-02-28T18:33:03.394Z,29.87
2019-02-28T18:35:32.595Z,27.77
2019-02-28T18:38:02.466Z,28.50
2019-02-28T18:40:28.731Z,27.57
2019-02-28T18:42:57.588Z,28.17
2019-02-28T18:45:24.468Z,30.63
2019-02-28T18:47:51.263Z,60.60
2019-02-28T18:50:18.011Z,28.47
2019-02-28T18:52:44.935Z,27.83
2019-02-28T18:55:12.423Z,28.03
2019-02-28T18:57:39.242Z,22.07
2019-02-28T19:01:02.433Z,26.03
2019-02-28T19:03:29.367Z,25.57
2019-02-28T19:05:56.179Z,46.47
2019-02-28T19:08:22.855Z,24.13
2019-02-28T19:10:54.959Z,22.83
2019-02-28T19:13:22.120Z,25.00
2019-02-28T19:15:48.933Z,23.07
2019-02-28T19:18:16.927Z,26.17
2019-02-28T19:20:43.782Z,23.40
2019-02-28T19:23:10.524Z,23.50
2019-02-28T19:25:37.157Z,20.23
2019-02-28T19:28:04.024Z,18.83
2019-02-28T19:30:30.743Z,10.97
2019-02-28T19:32:57.489Z,6.63
2019-02-28T19:35:24.202Z,5.87
2019-02-28T19:38:47.477Z,4.80
2019-02-28T19:41:14.217Z,3.40
2019-02-28T19:43:41.114Z,4.90
2019-02-28T19:46:07.935Z,2.37
2019-02-28T19:48:35.768Z,1.83
2019-02-28T19:51:03.062Z,1.87
2019-02-28T19:53:29.711Z,2.03
2019-02-28T19:55:56.859Z,2.50
2019-02-28T19:58:23.549Z,2.57
2019-02-28T20:00:51.964Z,1.90
2019-02-28T20:03:19.164Z,2.67
2019-02-28T20:05:46.085Z,2.97
2019-02-28T20:08:12.797Z,2.40
2019-02-28T20:10:39.391Z,4.97
2019-02-28T20:13:06.410Z,5.77
2019-02-28T20:15:36.478Z,3.30
2019-02-28T20:18:59.527Z,3.03
2019-02-28T20:21:27.436Z,3.10
2019-02-28T20:23:54.472Z,2.97
2019-02-28T20:26:21.486Z,2.33
2019-02-28T20:28:48.397Z,2.43
2019-02-28T20:31:15.688Z,2.40
2019-02-28T20:33:42.552Z,2.80
2019-02-28T20:36:09.656Z,5.33
2019-02-28T20:38:37.255Z,3.40
2019-02-28T20:41:04.282Z,3.10
2019-02-28T20:43:31.008Z,4.00
2019-02-28T20:45:58.148Z,5.53
2019-02-28T20:49:40.271Z,3.10
2019-02-28T20:52:07.254Z,5.90
2019-02-28T20:54:34.509Z,2.93
2019-02-28T20:57:01.302Z,11.07
2019-02-28T20:59:31.061Z,4.77
2019-02-28T21:01:58.021Z,4.07
2019-02-28T21:04:24.904Z,2.87
2019-02-28T21:06:53.157Z,17.80
2019-02-28T21:09:23.736Z,17.60
2019-02-28T21:11:50.792Z,7.87
2019-02-28T21:14:18.383Z,10.23
2019-02-28T21:16:46.759Z,6.20
2019-02-28T21:19:13.530Z,8.77
2019-02-28T21:21:40.258Z,16.73
2019-02-28T21:24:07.056Z,4.13
2019-02-28T21:26:33.987Z,5.23
2019-02-28T21:29:01.263Z,4.47
2019-02-28T21:31:28.154Z,4.00
2019-02-28T21:33:54.909Z,3.40
2019-02-28T21:36:21.991Z,3.30
2019-02-28T21:38:49.063Z,10.27
2019-02-28T21:41:16.717Z,12.87
2019-02-28T21:43:43.895Z,11.73
2019-02-28T21:46:10.741Z,15.70
2019-02-28T21:48:37.440Z,4.23
2019-02-28T21:51:04.394Z,44.20
2019-02-28T21:53:31.874Z,66.33
2019-02-28T21:55:59.221Z,30.17
2019-02-28T21:58:26.612Z,14.60
2019-02-28T22:00:54.164Z,52.43
2019-02-28T22:03:21.149Z,71.90
2019-02-28T22:05:49.020Z,19.73
2019-02-28T22:08:18.736Z,29.67
2019-02-28T22:10:45.524Z,23.53
2019-02-28T22:13:12.127Z,48.40
2019-02-28T22:15:38.835Z,28.37
2019-02-28T22:18:05.577Z,18.10
2019-02-28T22:20:32.758Z,16.30
2019-02-28T22:23:56.102Z,21.07
2019-02-28T22:26:22.907Z,30.40
2019-02-28T22:28:49.532Z,16.57
2019-02-28T22:31:25.583Z,28.00
2019-02-28T22:33:54.170Z,11.43
2019-02-28T22:36:22.807Z,16.07
2019-02-28T22:38:49.484Z,18.40
2019-02-28T22:41:16.284Z,10.07
2019-02-28T22:43:43.007Z,18.13
2019-02-28T22:46:09.807Z,35.40
2019-02-28T22:48:36.450Z,12.30
2019-02-28T22:51:03.591Z,39.90
2019-02-28T22:53:33.288Z,25.47
2019-02-28T22:56:00.032Z,15.50
2019-02-28T22:58:26.813Z,20.37
2019-02-28T23:01:01.036Z,21.57
2019-02-28T23:03:32.254Z,36.33
2019-02-28T23:05:59.333Z,17.23
2019-02-28T23:08:26.139Z,45.43
2019-02-28T23:10:53.083Z,21.27
2019-02-28T23:13:19.926Z,44.53
2019-02-28T23:15:46.555Z,20.37
2019-02-28T23:18:13.223Z,17.63
2019-02-28T23:20:39.838Z,20.93
2019-02-28T23:23:06.649Z,23.90
2019-02-28T23:25:33.223Z,21.47
2019-02-28T23:28:05.622Z,20.47
2019-02-28T23:30:38.061Z,19.07
2019-02-28T23:33:04.973Z,22.30
2019-02-28T23:35:33.882Z,20.20
2019-02-28T23:38:00.980Z,19.90
2019-02-28T23:40:27.849Z,22.77
2019-02-28T23:42:54.625Z,20.53
2019-02-28T23:45:21.400Z,20.10
2019-02-28T23:47:47.965Z,19.87
2019-02-28T23:50:14.675Z,20.87
2019-02-28T23:52:41.385Z,22.00
2019-02-28T23:55:08.750Z,20.60
2019-02-28T23:57:35.352Z,20.33
